sensor_id;sensor_type;location;lat;lon;timestamp;P1;durP1;ratioP1;P2;durP2;ratioP2
11653;SDS011;5883;48.818;9.114;2023-03-25T00:00:25;1.75;;;0.85;;
11653;SDS011;5883;48.818;9.114;2023-03-25T00:03:11;2.03;;;1.13;;
11653;SDS011;5883;48.818;9.114;2023-03-25T00:05:57;1.63;;;0.82;;
11653;SDS011;5883;48.818;9.114;2023-03-25T00:08:42;1.13;;;0.88;;
11653;SDS011;5883;48.818;9.114;2023-03-25T00:11:27;1.58;;;0.95;;
11653;SDS011;5883;48.818;9.114;2023-03-25T00:14:14;1.42;;;0.88;;
11653;SDS011;5883;48.818;9.114;2023-03-25T00:16:59;0.70;;;0.70;;
11653;SDS011;5883;48.818;9.114;2023-03-25T00:19:45;1.77;;;0.82;;
11653;SDS011;5883;48.818;9.114;2023-03-25T00:22:33;2.15;;;0.73;;
11653;SDS011;5883;48.818;9.114;2023-03-25T00:25:23;0.80;;;0.75;;
11653;SDS011;5883;48.818;9.114;2023-03-25T00:28:08;1.50;;;0.70;;
11653;SDS011;5883;48.818;9.114;2023-03-25T00:30:54;0.98;;;0.82;;
11653;SDS011;5883;48.818;9.114;2023-03-25T00:33:42;1.52;;;0.73;;
11653;SDS011;5883;48.818;9.114;2023-03-25T00:36:27;0.80;;;0.80;;
11653;SDS011;5883;48.818;9.114;2023-03-25T00:39:12;3.30;;;0.77;;
11653;SDS011;5883;48.818;9.114;2023-03-25T00:41:57;2.20;;;0.90;;
11653;SDS011;5883;48.818;9.114;2023-03-25T00:44:49;1.48;;;0.88;;
11653;SDS011;5883;48.818;9.114;2023-03-25T00:47:36;1.25;;;1.02;;
11653;SDS011;5883;48.818;9.114;2023-03-25T00:50:21;1.77;;;0.90;;
11653;SDS011;5883;48.818;9.114;2023-03-25T00:53:06;1.50;;;0.90;;
11653;SDS011;5883;48.818;9.114;2023-03-25T00:55:55;1.33;;;0.80;;
11653;SDS011;5883;48.818;9.114;2023-03-25T00:58:41;3.03;;;0.90;;
11653;SDS011;5883;48.818;9.114;2023-03-25T01:01:26;4.40;;;1.08;;
11653;SDS011;5883;48.818;9.114;2023-03-25T01:04:13;2.25;;;1.08;;
11653;SDS011;5883;48.818;9.114;2023-03-25T01:06:59;2.30;;;1.00;;
11653;SDS011;5883;48.818;9.114;2023-03-25T01:09:46;3.08;;;1.27;;
11653;SDS011;5883;48.818;9.114;2023-03-25T01:12:31;2.35;;;1.00;;
11653;SDS011;5883;48.818;9.114;2023-03-25T01:15:16;3.42;;;0.98;;
11653;SDS011;5883;48.818;9.114;2023-03-25T01:18:01;4.78;;;1.38;;
11653;SDS011;5883;48.818;9.114;2023-03-25T01:20:48;2.72;;;1.45;;
11653;SDS011;5883;48.818;9.114;2023-03-25T01:23:33;2.28;;;1.20;;
11653;SDS011;5883;48.818;9.114;2023-03-25T01:26:19;1.83;;;0.90;;
11653;SDS011;5883;48.818;9.114;2023-03-25T01:29:03;1.75;;;1.00;;
11653;SDS011;5883;48.818;9.114;2023-03-25T01:31:49;5.70;;;1.00;;
11653;SDS011;5883;48.818;9.114;2023-03-25T01:34:36;3.00;;;1.00;;
11653;SDS011;5883;48.818;9.114;2023-03-25T01:37:23;2.85;;;1.00;;
11653;SDS011;5883;48.818;9.114;2023-03-25T01:40:10;1.40;;;1.20;;
11653;SDS011;5883;48.818;9.114;2023-03-25T01:43:00;3.65;;;1.10;;
11653;SDS011;5883;48.818;9.114;2023-03-25T01:45:45;2.70;;;1.10;;
11653;SDS011;5883;48.818;9.114;2023-03-25T01:48:33;1.95;;;1.08;;
11653;SDS011;5883;48.818;9.114;2023-03-25T01:51:20;7.03;;;1.10;;
11653;SDS011;5883;48.818;9.114;2023-03-25T01:54:07;3.65;;;1.02;;
11653;SDS011;5883;48.818;9.114;2023-03-25T01:56:55;2.05;;;1.00;;
11653;SDS011;5883;48.818;9.114;2023-03-25T01:59:41;2.28;;;1.13;;
11653;SDS011;5883;48.818;9.114;2023-03-25T02:02:25;2.60;;;0.90;;
11653;SDS011;5883;48.818;9.114;2023-03-25T02:05:18;2.10;;;1.20;;
11653;SDS011;5883;48.818;9.114;2023-03-25T02:08:04;2.03;;;1.20;;
11653;SDS011;5883;48.818;9.114;2023-03-25T02:10:53;3.75;;;0.98;;
11653;SDS011;5883;48.818;9.114;2023-03-25T02:13:38;1.00;;;0.85;;
11653;SDS011;5883;48.818;9.114;2023-03-25T02:16:25;2.17;;;0.90;;
11653;SDS011;5883;48.818;9.114;2023-03-25T02:19:30;1.92;;;1.17;;
11653;SDS011;5883;48.818;9.114;2023-03-25T02:22:24;2.33;;;1.00;;
11653;SDS011;5883;48.818;9.114;2023-03-25T02:25:24;2.05;;;1.00;;
11653;SDS011;5883;48.818;9.114;2023-03-25T02:28:20;1.58;;;0.95;;
11653;SDS011;5883;48.818;9.114;2023-03-25T02:31:23;1.50;;;1.10;;
11653;SDS011;5883;48.818;9.114;2023-03-25T02:34:19;4.75;;;1.13;;
11653;SDS011;5883;48.818;9.114;2023-03-25T02:37:18;1.42;;;1.10;;
11653;SDS011;5883;48.818;9.114;2023-03-25T02:40:11;1.65;;;1.10;;
11653;SDS011;5883;48.818;9.114;2023-03-25T02:42:59;3.20;;;1.02;;
11653;SDS011;5883;48.818;9.114;2023-03-25T02:45:46;7.32;;;1.38;;
11653;SDS011;5883;48.818;9.114;2023-03-25T02:48:34;1.38;;;0.90;;
11653;SDS011;5883;48.818;9.114;2023-03-25T02:51:23;3.03;;;0.82;;
11653;SDS011;5883;48.818;9.114;2023-03-25T02:54:10;1.45;;;0.77;;
11653;SDS011;5883;48.818;9.114;2023-03-25T02:56:58;1.58;;;0.80;;
11653;SDS011;5883;48.818;9.114;2023-03-25T02:59:43;1.75;;;0.70;;
11653;SDS011;5883;48.818;9.114;2023-03-25T03:02:29;0.90;;;0.60;;
11653;SDS011;5883;48.818;9.114;2023-03-25T03:05:22;1.25;;;0.80;;
11653;SDS011;5883;48.818;9.114;2023-03-25T03:08:13;1.02;;;0.90;;
11653;SDS011;5883;48.818;9.114;2023-03-25T03:11:04;0.85;;;0.60;;
11653;SDS011;5883;48.818;9.114;2023-03-25T03:13:58;0.60;;;0.60;;
11653;SDS011;5883;48.818;9.114;2023-03-25T03:16:45;0.80;;;0.70;;
11653;SDS011;5883;48.818;9.114;2023-03-25T03:19:33;0.95;;;0.80;;
11653;SDS011;5883;48.818;9.114;2023-03-25T03:22:24;2.58;;;0.80;;
11653;SDS011;5883;48.818;9.114;2023-03-25T03:25:15;1.15;;;0.80;;
11653;SDS011;5883;48.818;9.114;2023-03-25T03:28:07;5.72;;;1.10;;
11653;SDS011;5883;48.818;9.114;2023-03-25T03:30:56;2.15;;;0.80;;
11653;SDS011;5883;48.818;9.114;2023-03-25T03:33:45;1.38;;;0.90;;
11653;SDS011;5883;48.818;9.114;2023-03-25T03:36:34;2.53;;;1.00;;
11653;SDS011;5883;48.818;9.114;2023-03-25T03:39:22;2.00;;;1.27;;
11653;SDS011;5883;48.818;9.114;2023-03-25T03:42:11;0.88;;;0.75;;
11653;SDS011;5883;48.818;9.114;2023-03-25T03:44:59;2.10;;;0.95;;
11653;SDS011;5883;48.818;9.114;2023-03-25T03:47:49;1.52;;;0.90;;
11653;SDS011;5883;48.818;9.114;2023-03-25T03:50:37;2.85;;;1.10;;
11653;SDS011;5883;48.818;9.114;2023-03-25T03:53:25;2.78;;;1.25;;
11653;SDS011;5883;48.818;9.114;2023-03-25T03:56:11;1.40;;;1.00;;
11653;SDS011;5883;48.818;9.114;2023-03-25T03:58:59;0.80;;;0.80;;
11653;SDS011;5883;48.818;9.114;2023-03-25T04:01:46;2.05;;;0.80;;
11653;SDS011;5883;48.818;9.114;2023-03-25T04:04:38;2.53;;;0.80;;
11653;SDS011;5883;48.818;9.114;2023-03-25T04:07:26;1.35;;;0.70;;
11653;SDS011;5883;48.818;9.114;2023-03-25T04:10:22;1.88;;;0.80;;
11653;SDS011;5883;48.818;9.114;2023-03-25T04:13:13;1.23;;;0.80;;
11653;SDS011;5883;48.818;9.114;2023-03-25T04:15:59;0.85;;;0.70;;
11653;SDS011;5883;48.818;9.114;2023-03-25T04:18:45;0.70;;;0.70;;
11653;SDS011;5883;48.818;9.114;2023-03-25T04:21:32;1.00;;;0.90;;
11653;SDS011;5883;48.818;9.114;2023-03-25T04:24:17;1.58;;;0.82;;
11653;SDS011;5883;48.818;9.114;2023-03-25T04:27:03;1.38;;;0.90;;
11653;SDS011;5883;48.818;9.114;2023-03-25T04:29:48;1.20;;;0.80;;
11653;SDS011;5883;48.818;9.114;2023-03-25T04:32:34;1.90;;;0.70;;
11653;SDS011;5883;48.818;9.114;2023-03-25T04:35:19;0.85;;;0.73;;
11653;SDS011;5883;48.818;9.114;2023-03-25T04:38:06;1.13;;;0.90;;
11653;SDS011;5883;48.818;9.114;2023-03-25T04:40:51;0.98;;;0.90;;
11653;SDS011;5883;48.818;9.114;2023-03-25T04:43:36;0.80;;;0.80;;
11653;SDS011;5883;48.818;9.114;2023-03-25T04:46:22;3.65;;;1.02;;
11653;SDS011;5883;48.818;9.114;2023-03-25T04:49:08;2.95;;;0.85;;
11653;SDS011;5883;48.818;9.114;2023-03-25T04:51:57;3.22;;;0.90;;
11653;SDS011;5883;48.818;9.114;2023-03-25T04:54:46;3.00;;;1.10;;
11653;SDS011;5883;48.818;9.114;2023-03-25T04:57:32;2.50;;;1.25;;
11653;SDS011;5883;48.818;9.114;2023-03-25T05:00:17;2.00;;;1.00;;
11653;SDS011;5883;48.818;9.114;2023-03-25T05:03:03;5.32;;;1.55;;
11653;SDS011;5883;48.818;9.114;2023-03-25T05:05:48;1.92;;;1.15;;
11653;SDS011;5883;48.818;9.114;2023-03-25T05:08:33;2.25;;;1.08;;
11653;SDS011;5883;48.818;9.114;2023-03-25T05:11:20;1.83;;;1.13;;
11653;SDS011;5883;48.818;9.114;2023-03-25T05:14:05;2.38;;;0.93;;
11653;SDS011;5883;48.818;9.114;2023-03-25T05:16:50;3.17;;;1.05;;
11653;SDS011;5883;48.818;9.114;2023-03-25T05:19:35;1.60;;;0.90;;
11653;SDS011;5883;48.818;9.114;2023-03-25T05:22:26;2.63;;;1.02;;
11653;SDS011;5883;48.818;9.114;2023-03-25T05:25:11;2.33;;;1.15;;
11653;SDS011;5883;48.818;9.114;2023-03-25T05:27:58;4.07;;;1.42;;
11653;SDS011;5883;48.818;9.114;2023-03-25T05:30:43;4.03;;;1.00;;
11653;SDS011;5883;48.818;9.114;2023-03-25T05:33:29;3.63;;;1.35;;
11653;SDS011;5883;48.818;9.114;2023-03-25T05:36:15;3.40;;;1.20;;
11653;SDS011;5883;48.818;9.114;2023-03-25T05:39:00;2.42;;;1.05;;
11653;SDS011;5883;48.818;9.114;2023-03-25T05:41:46;4.10;;;1.63;;
11653;SDS011;5883;48.818;9.114;2023-03-25T05:44:35;4.20;;;1.38;;
11653;SDS011;5883;48.818;9.114;2023-03-25T05:47:22;4.15;;;1.38;;
11653;SDS011;5883;48.818;9.114;2023-03-25T05:50:07;2.42;;;1.38;;
11653;SDS011;5883;48.818;9.114;2023-03-25T05:52:53;2.78;;;1.40;;
11653;SDS011;5883;48.818;9.114;2023-03-25T05:55:40;5.63;;;1.38;;
11653;SDS011;5883;48.818;9.114;2023-03-25T05:58:25;3.70;;;1.30;;
11653;SDS011;5883;48.818;9.114;2023-03-25T06:01:12;5.95;;;1.33;;
11653;SDS011;5883;48.818;9.114;2023-03-25T06:03:58;3.53;;;1.33;;
11653;SDS011;5883;48.818;9.114;2023-03-25T06:06:44;4.65;;;1.60;;
11653;SDS011;5883;48.818;9.114;2023-03-25T06:09:30;5.07;;;1.48;;
11653;SDS011;5883;48.818;9.114;2023-03-25T06:12:18;6.40;;;1.60;;
11653;SDS011;5883;48.818;9.114;2023-03-25T06:15:05;4.57;;;1.50;;
11653;SDS011;5883;48.818;9.114;2023-03-25T06:17:51;10.68;;;1.40;;
11653;SDS011;5883;48.818;9.114;2023-03-25T06:20:36;3.50;;;1.10;;
11653;SDS011;5883;48.818;9.114;2023-03-25T06:23:22;3.80;;;1.50;;
11653;SDS011;5883;48.818;9.114;2023-03-25T06:26:07;3.08;;;1.48;;
11653;SDS011;5883;48.818;9.114;2023-03-25T06:28:52;5.57;;;1.25;;
11653;SDS011;5883;48.818;9.114;2023-03-25T06:31:38;2.22;;;1.42;;
11653;SDS011;5883;48.818;9.114;2023-03-25T06:34:24;1.85;;;1.23;;
11653;SDS011;5883;48.818;9.114;2023-03-25T06:37:10;4.35;;;1.30;;
11653;SDS011;5883;48.818;9.114;2023-03-25T06:39:55;5.03;;;1.17;;
11653;SDS011;5883;48.818;9.114;2023-03-25T06:42:45;3.95;;;1.25;;
11653;SDS011;5883;48.818;9.114;2023-03-25T06:45:30;3.25;;;1.35;;
11653;SDS011;5883;48.818;9.114;2023-03-25T06:48:15;4.18;;;1.10;;
11653;SDS011;5883;48.818;9.114;2023-03-25T06:51:02;2.63;;;1.55;;
11653;SDS011;5883;48.818;9.114;2023-03-25T06:53:47;2.75;;;1.30;;
11653;SDS011;5883;48.818;9.114;2023-03-25T06:59:16;2.00;;;1.10;;
11653;SDS011;5883;48.818;9.114;2023-03-25T07:02:02;2.03;;;1.00;;
11653;SDS011;5883;48.818;9.114;2023-03-25T07:04:47;1.58;;;1.13;;
11653;SDS011;5883;48.818;9.114;2023-03-25T07:07:34;2.38;;;1.00;;
11653;SDS011;5883;48.818;9.114;2023-03-25T07:10:19;2.55;;;1.08;;
11653;SDS011;5883;48.818;9.114;2023-03-25T07:13:04;1.75;;;1.00;;
11653;SDS011;5883;48.818;9.114;2023-03-25T07:15:49;1.20;;;1.00;;
11653;SDS011;5883;48.818;9.114;2023-03-25T07:18:34;3.47;;;1.13;;
11653;SDS011;5883;48.818;9.114;2023-03-25T07:21:19;1.38;;;0.80;;
11653;SDS011;5883;48.818;9.114;2023-03-25T07:24:06;3.65;;;0.95;;
11653;SDS011;5883;48.818;9.114;2023-03-25T07:26:51;1.98;;;0.93;;
11653;SDS011;5883;48.818;9.114;2023-03-25T07:29:37;1.50;;;0.80;;
11653;SDS011;5883;48.818;9.114;2023-03-25T07:32:22;1.35;;;0.93;;
11653;SDS011;5883;48.818;9.114;2023-03-25T07:35:07;1.52;;;1.20;;
11653;SDS011;5883;48.818;9.114;2023-03-25T07:37:53;2.47;;;1.00;;
11653;SDS011;5883;48.818;9.114;2023-03-25T07:40:40;2.35;;;0.90;;
11653;SDS011;5883;48.818;9.114;2023-03-25T07:43:25;2.53;;;1.02;;
11653;SDS011;5883;48.818;9.114;2023-03-25T07:46:13;1.92;;;0.90;;
11653;SDS011;5883;48.818;9.114;2023-03-25T07:48:58;3.65;;;1.23;;
11653;SDS011;5883;48.818;9.114;2023-03-25T07:51:45;3.25;;;0.98;;
11653;SDS011;5883;48.818;9.114;2023-03-25T07:54:30;1.77;;;0.85;;
11653;SDS011;5883;48.818;9.114;2023-03-25T07:57:17;1.80;;;1.10;;
11653;SDS011;5883;48.818;9.114;2023-03-25T08:00:02;1.88;;;0.90;;
11653;SDS011;5883;48.818;9.114;2023-03-25T08:02:48;1.35;;;0.90;;
11653;SDS011;5883;48.818;9.114;2023-03-25T08:05:34;2.70;;;1.08;;
11653;SDS011;5883;48.818;9.114;2023-03-25T08:08:20;2.85;;;1.30;;
11653;SDS011;5883;48.818;9.114;2023-03-25T08:11:06;2.13;;;1.02;;
11653;SDS011;5883;48.818;9.114;2023-03-25T08:13:53;2.95;;;0.98;;
11653;SDS011;5883;48.818;9.114;2023-03-25T08:16:38;1.45;;;0.93;;
11653;SDS011;5883;48.818;9.114;2023-03-25T08:19:24;2.47;;;1.10;;
11653;SDS011;5883;48.818;9.114;2023-03-25T08:22:09;4.05;;;1.05;;
11653;SDS011;5883;48.818;9.114;2023-03-25T08:24:54;2.38;;;1.00;;
11653;SDS011;5883;48.818;9.114;2023-03-25T08:27:40;5.53;;;1.08;;
11653;SDS011;5883;48.818;9.114;2023-03-25T08:30:27;3.90;;;1.00;;
11653;SDS011;5883;48.818;9.114;2023-03-25T08:33:13;1.60;;;0.90;;
11653;SDS011;5883;48.818;9.114;2023-03-25T08:35:59;0.95;;;0.90;;
11653;SDS011;5883;48.818;9.114;2023-03-25T08:38:45;1.65;;;1.10;;
11653;SDS011;5883;48.818;9.114;2023-03-25T08:41:30;1.95;;;0.90;;
11653;SDS011;5883;48.818;9.114;2023-03-25T08:44:15;1.48;;;1.00;;
11653;SDS011;5883;48.818;9.114;2023-03-25T08:47:02;3.67;;;1.00;;
11653;SDS011;5883;48.818;9.114;2023-03-25T08:49:48;1.55;;;0.90;;
11653;SDS011;5883;48.818;9.114;2023-03-25T08:52:34;0.77;;;0.70;;
11653;SDS011;5883;48.818;9.114;2023-03-25T08:55:19;1.08;;;0.70;;
11653;SDS011;5883;48.818;9.114;2023-03-25T08:58:05;0.75;;;0.70;;
11653;SDS011;5883;48.818;9.114;2023-03-25T09:00:51;1.88;;;0.65;;
11653;SDS011;5883;48.818;9.114;2023-03-25T09:03:38;1.27;;;0.77;;
11653;SDS011;5883;48.818;9.114;2023-03-25T09:06:24;0.85;;;0.70;;
11653;SDS011;5883;48.818;9.114;2023-03-25T09:09:10;1.25;;;0.80;;
11653;SDS011;5883;48.818;9.114;2023-03-25T09:11:55;0.80;;;0.80;;
11653;SDS011;5883;48.818;9.114;2023-03-25T09:14:41;1.38;;;0.73;;
11653;SDS011;5883;48.818;9.114;2023-03-25T09:17:26;1.77;;;0.70;;
11653;SDS011;5883;48.818;9.114;2023-03-25T09:20:13;1.02;;;0.85;;
11653;SDS011;5883;48.818;9.114;2023-03-25T09:22:59;0.95;;;0.70;;
11653;SDS011;5883;48.818;9.114;2023-03-25T09:25:45;0.75;;;0.70;;
11653;SDS011;5883;48.818;9.114;2023-03-25T09:28:30;1.73;;;0.70;;
11653;SDS011;5883;48.818;9.114;2023-03-25T09:31:15;0.70;;;0.70;;
11653;SDS011;5883;48.818;9.114;2023-03-25T09:34:01;0.60;;;0.60;;
11653;SDS011;5883;48.818;9.114;2023-03-25T09:36:48;0.60;;;0.60;;
11653;SDS011;5883;48.818;9.114;2023-03-25T09:39:33;0.93;;;0.80;;
11653;SDS011;5883;48.818;9.114;2023-03-25T09:45:22;1.38;;;0.82;;
11653;SDS011;5883;48.818;9.114;2023-03-25T09:48:14;1.83;;;0.80;;
11653;SDS011;5883;48.818;9.114;2023-03-25T09:51:01;0.80;;;0.80;;
11653;SDS011;5883;48.818;9.114;2023-03-25T09:53:49;2.42;;;0.85;;
11653;SDS011;5883;48.818;9.114;2023-03-25T09:56:36;2.17;;;0.80;;
11653;SDS011;5883;48.818;9.114;2023-03-25T09:59:22;1.40;;;0.80;;
11653;SDS011;5883;48.818;9.114;2023-03-25T10:02:12;0.82;;;0.80;;
11653;SDS011;5883;48.818;9.114;2023-03-25T10:05:07;1.35;;;0.80;;
11653;SDS011;5883;48.818;9.114;2023-03-25T10:07:58;1.42;;;0.80;;
11653;SDS011;5883;48.818;9.114;2023-03-25T10:10:49;1.00;;;0.77;;
11653;SDS011;5883;48.818;9.114;2023-03-25T10:13:39;1.50;;;0.90;;
11653;SDS011;5883;48.818;9.114;2023-03-25T10:16:28;0.88;;;0.70;;
11653;SDS011;5883;48.818;9.114;2023-03-25T10:19:27;0.93;;;0.85;;
11653;SDS011;5883;48.818;9.114;2023-03-25T10:22:14;1.00;;;0.90;;
11653;SDS011;5883;48.818;9.114;2023-03-25T10:25:01;1.52;;;0.93;;
11653;SDS011;5883;48.818;9.114;2023-03-25T10:27:49;1.13;;;0.90;;
11653;SDS011;5883;48.818;9.114;2023-03-25T10:30:37;1.13;;;0.93;;
11653;SDS011;5883;48.818;9.114;2023-03-25T10:33:25;1.30;;;0.80;;
11653;SDS011;5883;48.818;9.114;2023-03-25T10:36:13;1.02;;;0.80;;
11653;SDS011;5883;48.818;9.114;2023-03-25T10:39:01;1.05;;;0.80;;
11653;SDS011;5883;48.818;9.114;2023-03-25T10:41:49;1.35;;;0.90;;
11653;SDS011;5883;48.818;9.114;2023-03-25T10:44:37;1.52;;;0.90;;
11653;SDS011;5883;48.818;9.114;2023-03-25T10:47:22;1.02;;;0.93;;
11653;SDS011;5883;48.818;9.114;2023-03-25T10:50:11;2.63;;;0.90;;
11653;SDS011;5883;48.818;9.114;2023-03-25T10:52:58;1.92;;;1.00;;
11653;SDS011;5883;48.818;9.114;2023-03-25T10:55:44;0.93;;;0.70;;
11653;SDS011;5883;48.818;9.114;2023-03-25T10:58:30;0.73;;;0.70;;
11653;SDS011;5883;48.818;9.114;2023-03-25T11:01:18;1.20;;;0.70;;
11653;SDS011;5883;48.818;9.114;2023-03-25T11:04:05;1.08;;;0.80;;
11653;SDS011;5883;48.818;9.114;2023-03-25T11:06:52;0.75;;;0.70;;
11653;SDS011;5883;48.818;9.114;2023-03-25T11:09:40;1.75;;;0.90;;
11653;SDS011;5883;48.818;9.114;2023-03-25T11:12:25;1.13;;;0.70;;
11653;SDS011;5883;48.818;9.114;2023-03-25T11:15:12;0.73;;;0.73;;
11653;SDS011;5883;48.818;9.114;2023-03-25T11:17:59;1.15;;;0.90;;
11653;SDS011;5883;48.818;9.114;2023-03-25T11:20:47;0.70;;;0.70;;
11653;SDS011;5883;48.818;9.114;2023-03-25T11:23:33;1.50;;;0.90;;
11653;SDS011;5883;48.818;9.114;2023-03-25T11:26:20;1.42;;;0.88;;
11653;SDS011;5883;48.818;9.114;2023-03-25T11:29:07;2.25;;;1.05;;
11653;SDS011;5883;48.818;9.114;2023-03-25T11:31:57;2.05;;;0.98;;
11653;SDS011;5883;48.818;9.114;2023-03-25T11:34:50;2.75;;;0.90;;
11653;SDS011;5883;48.818;9.114;2023-03-25T11:37:42;1.85;;;0.85;;
11653;SDS011;5883;48.818;9.114;2023-03-25T11:40:28;2.53;;;0.80;;
11653;SDS011;5883;48.818;9.114;2023-03-25T11:43:13;2.25;;;1.00;;
11653;SDS011;5883;48.818;9.114;2023-03-25T11:46:07;1.88;;;0.98;;
11653;SDS011;5883;48.818;9.114;2023-03-25T11:48:53;1.63;;;0.90;;
11653;SDS011;5883;48.818;9.114;2023-03-25T11:51:40;2.13;;;1.05;;
11653;SDS011;5883;48.818;9.114;2023-03-25T11:54:26;1.75;;;0.88;;
11653;SDS011;5883;48.818;9.114;2023-03-25T11:57:13;2.05;;;0.60;;
11653;SDS011;5883;48.818;9.114;2023-03-25T12:00:00;3.03;;;1.10;;
11653;SDS011;5883;48.818;9.114;2023-03-25T12:02:49;2.22;;;0.93;;
11653;SDS011;5883;48.818;9.114;2023-03-25T12:05:43;1.58;;;0.90;;
11653;SDS011;5883;48.818;9.114;2023-03-25T12:08:42;2.38;;;0.90;;
11653;SDS011;5883;48.818;9.114;2023-03-25T12:11:29;2.05;;;0.80;;
11653;SDS011;5883;48.818;9.114;2023-03-25T12:14:18;0.80;;;0.60;;
11653;SDS011;5883;48.818;9.114;2023-03-25T12:17:10;0.85;;;0.80;;
11653;SDS011;5883;48.818;9.114;2023-03-25T12:20:01;0.82;;;0.70;;
11653;SDS011;5883;48.818;9.114;2023-03-25T12:22:54;0.98;;;0.88;;
11653;SDS011;5883;48.818;9.114;2023-03-25T12:25:47;1.45;;;0.90;;
11653;SDS011;5883;48.818;9.114;2023-03-25T12:28:48;0.85;;;0.80;;
11653;SDS011;5883;48.818;9.114;2023-03-25T12:31:46;2.33;;;1.02;;
11653;SDS011;5883;48.818;9.114;2023-03-25T12:34:36;1.40;;;1.00;;
11653;SDS011;5883;48.818;9.114;2023-03-25T12:37:29;1.10;;;0.80;;
11653;SDS011;5883;48.818;9.114;2023-03-25T12:40:22;1.42;;;0.90;;
11653;SDS011;5883;48.818;9.114;2023-03-25T12:43:12;2.13;;;0.82;;
11653;SDS011;5883;48.818;9.114;2023-03-25T12:46:13;1.63;;;1.00;;
11653;SDS011;5883;48.818;9.114;2023-03-25T12:49:03;1.98;;;0.80;;
11653;SDS011;5883;48.818;9.114;2023-03-25T12:51:52;2.83;;;0.80;;
11653;SDS011;5883;48.818;9.114;2023-03-25T12:54:45;1.15;;;0.90;;
11653;SDS011;5883;48.818;9.114;2023-03-25T12:57:40;1.52;;;0.88;;
11653;SDS011;5883;48.818;9.114;2023-03-25T13:00:33;0.90;;;0.70;;
11653;SDS011;5883;48.818;9.114;2023-03-25T13:06:28;1.08;;;0.80;;
11653;SDS011;5883;48.818;9.114;2023-03-25T13:09:18;2.03;;;0.80;;
11653;SDS011;5883;48.818;9.114;2023-03-25T13:12:08;0.70;;;0.70;;
11653;SDS011;5883;48.818;9.114;2023-03-25T13:14:56;0.93;;;0.70;;
11653;SDS011;5883;48.818;9.114;2023-03-25T13:17:46;1.63;;;0.82;;
11653;SDS011;5883;48.818;9.114;2023-03-25T13:20:34;1.60;;;0.90;;
11653;SDS011;5883;48.818;9.114;2023-03-25T13:23:21;1.35;;;0.90;;
11653;SDS011;5883;48.818;9.114;2023-03-25T13:26:08;3.22;;;1.00;;
11653;SDS011;5883;48.818;9.114;2023-03-25T13:28:55;2.30;;;1.00;;
11653;SDS011;5883;48.818;9.114;2023-03-25T13:31:42;3.88;;;0.80;;
11653;SDS011;5883;48.818;9.114;2023-03-25T13:34:32;1.08;;;0.80;;
11653;SDS011;5883;48.818;9.114;2023-03-25T13:37:21;3.70;;;1.00;;
11653;SDS011;5883;48.818;9.114;2023-03-25T13:40:15;1.05;;;0.82;;
11653;SDS011;5883;48.818;9.114;2023-03-25T13:43:11;1.63;;;1.00;;
11653;SDS011;5883;48.818;9.114;2023-03-25T13:46:03;1.60;;;1.00;;
11653;SDS011;5883;48.818;9.114;2023-03-25T13:48:51;3.13;;;1.10;;
11653;SDS011;5883;48.818;9.114;2023-03-25T13:51:39;1.48;;;1.02;;
11653;SDS011;5883;48.818;9.114;2023-03-25T13:54:26;1.48;;;1.10;;
11653;SDS011;5883;48.818;9.114;2023-03-25T13:57:29;2.70;;;1.00;;
11653;SDS011;5883;48.818;9.114;2023-03-25T14:03:18;2.75;;;1.00;;
11653;SDS011;5883;48.818;9.114;2023-03-25T14:12:30;1.92;;;1.05;;
11653;SDS011;5883;48.818;9.114;2023-03-25T14:15:17;2.58;;;0.98;;
11653;SDS011;5883;48.818;9.114;2023-03-25T14:18:04;3.25;;;0.95;;
11653;SDS011;5883;48.818;9.114;2023-03-25T14:20:55;1.60;;;0.80;;
11653;SDS011;5883;48.818;9.114;2023-03-25T14:23:40;2.35;;;0.90;;
11653;SDS011;5883;48.818;9.114;2023-03-25T14:26:25;3.05;;;1.00;;
11653;SDS011;5883;48.818;9.114;2023-03-25T14:29:17;3.35;;;1.27;;
11653;SDS011;5883;48.818;9.114;2023-03-25T14:32:05;0.93;;;0.80;;
11653;SDS011;5883;48.818;9.114;2023-03-25T14:34:51;4.82;;;1.42;;
11653;SDS011;5883;48.818;9.114;2023-03-25T14:37:43;1.73;;;1.05;;
11653;SDS011;5883;48.818;9.114;2023-03-25T14:40:45;2.05;;;1.10;;
11653;SDS011;5883;48.818;9.114;2023-03-25T14:43:31;2.97;;;1.10;;
11653;SDS011;5883;48.818;9.114;2023-03-25T14:46:20;1.80;;;1.08;;
11653;SDS011;5883;48.818;9.114;2023-03-25T14:49:08;1.70;;;1.00;;
11653;SDS011;5883;48.818;9.114;2023-03-25T14:51:56;3.20;;;1.10;;
11653;SDS011;5883;48.818;9.114;2023-03-25T14:54:41;4.53;;;1.15;;
11653;SDS011;5883;48.818;9.114;2023-03-25T14:57:28;2.05;;;1.20;;
11653;SDS011;5883;48.818;9.114;2023-03-25T15:00:18;3.28;;;1.00;;
11653;SDS011;5883;48.818;9.114;2023-03-25T15:03:09;6.45;;;1.40;;
11653;SDS011;5883;48.818;9.114;2023-03-25T15:05:55;2.13;;;1.23;;
11653;SDS011;5883;48.818;9.114;2023-03-25T15:08:41;1.88;;;1.00;;
11653;SDS011;5883;48.818;9.114;2023-03-25T15:11:34;3.80;;;1.25;;
11653;SDS011;5883;48.818;9.114;2023-03-25T15:14:20;1.80;;;1.08;;
11653;SDS011;5883;48.818;9.114;2023-03-25T15:17:07;2.10;;;1.08;;
11653;SDS011;5883;48.818;9.114;2023-03-25T15:20:25;3.97;;;1.63;;
11653;SDS011;5883;48.818;9.114;2023-03-25T15:26:23;2.05;;;1.00;;
11653;SDS011;5883;48.818;9.114;2023-03-25T15:29:33;2.30;;;1.20;;
11653;SDS011;5883;48.818;9.114;2023-03-25T15:32:28;5.30;;;1.08;;
11653;SDS011;5883;48.818;9.114;2023-03-25T15:35:37;3.08;;;1.23;;
11653;SDS011;5883;48.818;9.114;2023-03-25T15:38:38;2.88;;;1.10;;
11653;SDS011;5883;48.818;9.114;2023-03-25T15:44:37;1.40;;;1.00;;
11653;SDS011;5883;48.818;9.114;2023-03-25T15:47:32;3.30;;;1.27;;
11653;SDS011;5883;48.818;9.114;2023-03-25T15:50:24;1.52;;;1.00;;
11653;SDS011;5883;48.818;9.114;2023-03-25T15:56:13;2.30;;;0.98;;
11653;SDS011;5883;48.818;9.114;2023-03-25T15:59:00;4.45;;;1.02;;
11653;SDS011;5883;48.818;9.114;2023-03-25T16:01:49;3.08;;;1.13;;
11653;SDS011;5883;48.818;9.114;2023-03-25T16:04:36;1.83;;;0.90;;
11653;SDS011;5883;48.818;9.114;2023-03-25T16:07:23;5.38;;;1.25;;
11653;SDS011;5883;48.818;9.114;2023-03-25T16:10:15;1.45;;;1.00;;
11653;SDS011;5883;48.818;9.114;2023-03-25T16:13:04;2.67;;;1.17;;
11653;SDS011;5883;48.818;9.114;2023-03-25T16:15:49;2.65;;;1.15;;
11653;SDS011;5883;48.818;9.114;2023-03-25T16:18:36;4.53;;;1.52;;
11653;SDS011;5883;48.818;9.114;2023-03-25T16:21:22;2.33;;;1.45;;
11653;SDS011;5883;48.818;9.114;2023-03-25T16:24:09;4.80;;;1.50;;
11653;SDS011;5883;48.818;9.114;2023-03-25T16:26:56;7.15;;;1.23;;
11653;SDS011;5883;48.818;9.114;2023-03-25T16:29:45;2.17;;;1.00;;
11653;SDS011;5883;48.818;9.114;2023-03-25T16:32:32;3.85;;;1.50;;
11653;SDS011;5883;48.818;9.114;2023-03-25T16:35:22;5.00;;;1.40;;
11653;SDS011;5883;48.818;9.114;2023-03-25T16:38:09;2.72;;;1.20;;
11653;SDS011;5883;48.818;9.114;2023-03-25T16:41:00;5.07;;;1.25;;
11653;SDS011;5883;48.818;9.114;2023-03-25T16:43:45;3.55;;;1.30;;
11653;SDS011;5883;48.818;9.114;2023-03-25T16:46:32;3.70;;;1.25;;
11653;SDS011;5883;48.818;9.114;2023-03-25T16:49:19;4.22;;;1.77;;
11653;SDS011;5883;48.818;9.114;2023-03-25T16:52:06;3.53;;;1.20;;
11653;SDS011;5883;48.818;9.114;2023-03-25T16:55:11;3.22;;;1.90;;
11653;SDS011;5883;48.818;9.114;2023-03-25T16:57:58;2.60;;;1.30;;
11653;SDS011;5883;48.818;9.114;2023-03-25T17:00:45;4.05;;;1.20;;
11653;SDS011;5883;48.818;9.114;2023-03-25T17:03:39;3.28;;;1.17;;
11653;SDS011;5883;48.818;9.114;2023-03-25T17:06:26;5.20;;;1.50;;
11653;SDS011;5883;48.818;9.114;2023-03-25T17:09:18;4.03;;;0.98;;
11653;SDS011;5883;48.818;9.114;2023-03-25T17:12:05;3.80;;;1.10;;
11653;SDS011;5883;48.818;9.114;2023-03-25T17:14:55;1.92;;;1.08;;
11653;SDS011;5883;48.818;9.114;2023-03-25T17:17:41;2.05;;;1.27;;
11653;SDS011;5883;48.818;9.114;2023-03-25T17:20:32;9.05;;;4.68;;
11653;SDS011;5883;48.818;9.114;2023-03-25T17:23:20;17.77;;;11.07;;
11653;SDS011;5883;48.818;9.114;2023-03-25T17:26:10;11.95;;;6.47;;
11653;SDS011;5883;48.818;9.114;2023-03-25T17:28:57;8.20;;;4.13;;
11653;SDS011;5883;48.818;9.114;2023-03-25T17:31:42;12.30;;;7.07;;
11653;SDS011;5883;48.818;9.114;2023-03-25T17:34:37;18.92;;;10.95;;